Time;durP1;ratioP1;P1;durP2;ratioP2;P2;SDS_P1;SDS_P2;PMS_P1;PMS_P2;Temp;Humidity;BMP_temperature;BMP_pressure;BME280_temperature;BME280_humidity;BME280_pressure;Samples;Min_cycle;Max_cycle;Signal;HPM_P1;HPM_P2
2023/05/19 00:01:37;;;;;;;11.68;4.40;;;;;;;;;;4990174;28;20118;-61
2023/05/19 00:04:04;;;;;;;12.43;5.07;;;;;;;;;;4991249;28;20045;-61
2023/05/19 00:06:31;;;;;;;9.02;3.92;;;;;;;;;;4990895;28;20053;-61
2023/05/19 00:09:01;;;;;;;13.15;4.65;;;;;;;;;;4988331;28;20026;-61
2023/05/19 00:11:28;;;;;;;12.25;4.47;;;;;;;;;;4989993;28;20041;-61
2023/05/19 00:13:55;;;;;;;10.48;4.53;;;;;;;;;;4989573;28;20056;-61
2023/05/19 00:16:21;;;;;;;11.20;3.80;;;;;;;;;;4991035;28;20042;-61
2023/05/19 00:18:47;;;;;;;13.80;4.40;;;;;;;;;;4990574;28;20068;-61
2023/05/19 00:21:14;;;;;;;15.25;4.50;;;;;;;;;;4989755;28;20381;-61
2023/05/19 00:23:40;;;;;;;11.73;5.22;;;;;;;;;;4989814;28;20042;-61
2023/05/19 00:26:06;;;;;;;10.60;4.47;;;;;;;;;;4990850;28;20369;-61
2023/05/19 00:28:32;;;;;;;12.38;4.55;;;;;;;;;;4990509;28;20053;-61
2023/05/19 00:30:58;;;;;;;10.13;4.13;;;;;;;;;;4989639;28;20384;-61
2023/05/19 00:33:24;;;;;;;8.57;4.32;;;;;;;;;;4990931;28;20132;-61
2023/05/19 00:35:50;;;;;;;9.88;4.75;;;;;;;;;;4990140;28;20038;-61
2023/05/19 00:38:16;;;;;;;9.00;4.05;;;;;;;;;;4990605;28;20037;-61
2023/05/19 00:40:42;;;;;;;13.13;4.30;;;;;;;;;;4989435;28;20049;-61
2023/05/19 00:43:08;;;;;;;14.48;4.18;;;;;;;;;;4990779;28;20038;-61
2023/05/19 00:45:34;;;;;;;13.52;4.13;;;;;;;;;;4990165;28;20117;-61
2023/05/19 00:48:00;;;;;;;11.55;4.55;;;;;;;;;;4989509;28;20045;-61
2023/05/19 00:50:27;;;;;;;12.27;4.47;;;;;;;;;;4989988;28;20038;-61
2023/05/19 00:52:56;;;;;;;10.50;4.45;;;;;;;;;;4990795;28;20042;-61
2023/05/19 00:55:26;;;;;;;13.75;4.90;;;;;;;;;;4989433;28;20042;-61
2023/05/19 00:57:52;;;;;;;13.43;5.07;;;;;;;;;;4990302;28;20049;-61
2023/05/19 01:00:18;;;;;;;10.85;4.25;;;;;;;;;;4989892;28;20038;-61
2023/05/19 01:02:44;;;;;;;10.38;4.57;;;;;;;;;;4989916;28;20038;-61
2023/05/19 01:05:10;;;;;;;10.07;4.75;;;;;;;;;;4989449;28;20515;-61
2023/05/19 01:07:37;;;;;;;10.88;4.43;;;;;;;;;;4988662;28;20461;-61
2023/05/19 01:10:03;;;;;;;8.57;4.22;;;;;;;;;;4990177;28;20100;-61
2023/05/19 01:12:29;;;;;;;13.77;5.15;;;;;;;;;;4989765;28;20081;-61
2023/05/19 01:14:56;;;;;;;17.20;4.70;;;;;;;;;;4990505;28;20045;-61
2023/05/19 01:17:28;;;;;;;11.48;4.82;;;;;;;;;;4982637;28;20408;-61
2023/05/19 01:20:04;;;;;;;11.23;4.95;;;;;;;;;;4989719;28;20038;-62
2023/05/19 01:22:48;;;;;;;11.90;4.25;;;;;;;;;;4982199;28;20162;-61
2023/05/19 01:25:34;;;;;;;13.85;4.25;;;;;;;;;;4984971;28;20101;-61
2023/05/19 01:28:15;;;;;;;10.02;4.40;;;;;;;;;;4990070;28;20077;-61
2023/05/19 01:30:43;;;;;;;11.63;4.68;;;;;;;;;;4989747;28;20053;-61
2023/05/19 01:33:12;;;;;;;8.18;4.07;;;;;;;;;;4993406;28;20046;-61
2023/05/19 01:35:39;;;;;;;10.65;4.35;;;;;;;;;;4992773;28;20197;-61
2023/05/19 01:38:08;;;;;;;11.48;4.32;;;;;;;;;;4994056;28;20072;-61
2023/05/19 01:40:34;;;;;;;12.00;4.97;;;;;;;;;;4988415;28;20035;-61
2023/05/19 01:43:01;;;;;;;8.93;3.65;;;;;;;;;;4976371;28;20042;-61
2023/05/19 01:45:28;;;;;;;11.18;4.30;;;;;;;;;;4992658;28;20092;-61
2023/05/19 01:47:55;;;;;;;12.10;4.82;;;;;;;;;;4993769;28;20459;-61
2023/05/19 01:50:21;;;;;;;10.85;4.25;;;;;;;;;;4993434;28;20416;-61
2023/05/19 01:52:48;;;;;;;11.80;4.82;;;;;;;;;;4993383;28;20092;-62
2023/05/19 01:55:14;;;;;;;10.07;4.20;;;;;;;;;;4992247;28;20408;-61
2023/05/19 01:57:52;;;;;;;12.00;4.20;;;;;;;;;;4976225;28;20394;-61
2023/05/19 02:00:31;;;;;;;10.98;4.03;;;;;;;;;;4992041;28;20374;-61
2023/05/19 02:03:03;;;;;;;10.65;4.57;;;;;;;;;;4993672;28;20054;-61
2023/05/19 02:05:29;;;;;;;10.27;4.10;;;;;;;;;;4993463;28;20042;-61
2023/05/19 02:08:03;;;;;;;15.23;4.50;;;;;;;;;;4990024;28;20499;-61
2023/05/19 02:10:30;;;;;;;12.45;4.10;;;;;;;;;;4993268;28;20165;-61
2023/05/19 02:12:58;;;;;;;8.30;4.03;;;;;;;;;;4991695;28;20042;-61
2023/05/19 02:15:25;;;;;;;8.45;3.88;;;;;;;;;;4976474;28;20491;-61
2023/05/19 02:17:53;;;;;;;10.25;3.90;;;;;;;;;;4992715;28;20041;-61
2023/05/19 02:20:21;;;;;;;14.52;4.85;;;;;;;;;;4993218;28;20042;-61
2023/05/19 02:22:47;;;;;;;10.13;4.00;;;;;;;;;;4992872;28;20034;-61
2023/05/19 02:25:13;;;;;;;11.55;4.55;;;;;;;;;;4993393;28;20042;-62
2023/05/19 02:27:39;;;;;;;14.68;5.15;;;;;;;;;;4990540;28;20042;-61
2023/05/19 02:30:07;;;;;;;12.13;4.70;;;;;;;;;;4992307;28;20046;-61
2023/05/19 02:32:33;;;;;;;13.13;4.15;;;;;;;;;;4992555;28;20101;-61
2023/05/19 02:34:59;;;;;;;9.95;4.40;;;;;;;;;;4984916;28;20515;-61
2023/05/19 02:37:27;;;;;;;11.70;4.20;;;;;;;;;;4992967;28;20057;-61
2023/05/19 02:39:53;;;;;;;10.02;4.22;;;;;;;;;;4991190;28;20042;-61
2023/05/19 02:42:19;;;;;;;11.35;4.65;;;;;;;;;;4992676;28;20042;-61
2023/05/19 02:44:45;;;;;;;9.52;3.95;;;;;;;;;;4990001;28;20061;-61
2023/05/19 02:47:12;;;;;;;10.43;3.75;;;;;;;;;;4992347;28;20141;-61
2023/05/19 02:49:38;;;;;;;12.93;4.10;;;;;;;;;;4992351;28;20042;-61
2023/05/19 02:52:05;;;;;;;11.15;4.07;;;;;;;;;;4991108;28;20500;-61
2023/05/19 02:54:32;;;;;;;11.90;3.97;;;;;;;;;;4992852;28;20081;-61
2023/05/19 02:56:58;;;;;;;11.65;3.72;;;;;;;;;;4991958;28;20088;-61
2023/05/19 02:59:24;;;;;;;9.93;4.20;;;;;;;;;;4991898;28;20177;-61
2023/05/19 03:01:59;;;;;;;10.68;3.88;;;;;;;;;;4992038;28;20094;-61
2023/05/19 03:04:25;;;;;;;;;;;;;;;;;;4991764;28;20102;-61
2023/05/19 03:06:52;;;;;;;10.75;4.05;;;;;;;;;;4992260;28;20052;-61
2023/05/19 03:09:19;;;;;;;15.02;4.93;;;;;;;;;;4991011;28;20057;-61
2023/05/19 03:11:45;;;;;;;7.90;3.80;;;;;;;;;;4992061;28;20044;-61
2023/05/19 03:14:12;;;;;;;8.77;3.90;;;;;;;;;;4991996;28;20042;-61
2023/05/19 03:16:39;;;;;;;8.05;3.75;;;;;;;;;;4990665;28;20124;-61
2023/05/19 03:19:06;;;;;;;9.07;3.80;;;;;;;;;;4974154;28;20050;-61
2023/05/19 03:21:33;;;;;;;10.07;3.13;;;;;;;;;;4992248;28;20093;-61
2023/05/19 03:23:59;;;;;;;9.25;3.72;;;;;;;;;;4991815;28;20030;-61
2023/05/19 03:26:25;;;;;;;15.10;3.95;;;;;;;;;;4998436;28;20070;-61
2023/05/19 03:28:52;;;;;;;10.00;3.70;;;;;;;;;;4987175;28;20408;-61
2023/05/19 03:31:18;;;;;;;12.25;3.88;;;;;;;;;;4988555;28;20046;-61
2023/05/19 03:33:44;;;;;;;7.85;3.63;;;;;;;;;;4972592;28;20437;-61
2023/05/19 03:36:11;;;;;;;10.90;3.80;;;;;;;;;;4990257;28;20585;-61
2023/05/19 03:38:37;;;;;;;13.55;3.60;;;;;;;;;;4990077;28;20501;-61
2023/05/19 03:41:03;;;;;;;9.77;3.75;;;;;;;;;;4991609;28;20352;-61
2023/05/19 03:43:29;;;;;;;12.20;4.13;;;;;;;;;;4990165;28;20046;-61
2023/05/19 03:45:56;;;;;;;12.77;3.55;;;;;;;;;;4991592;28;20046;-61
2023/05/19 03:48:22;;;;;;;12.93;4.07;;;;;;;;;;4991232;28;20037;-61
2023/05/19 03:50:48;;;;;;;13.10;4.07;;;;;;;;;;4991164;28;20636;-60
2023/05/19 03:53:14;;;;;;;12.65;4.55;;;;;;;;;;4991324;28;20117;-61
2023/05/19 03:55:40;;;;;;;15.85;4.80;;;;;;;;;;4990813;28;20050;-61
2023/05/19 03:58:06;;;;;;;11.23;4.07;;;;;;;;;;4989967;28;20465;-61
2023/05/19 04:00:32;;;;;;;10.45;4.03;;;;;;;;;;4990827;28;20070;-61
2023/05/19 04:02:59;;;;;;;7.90;3.22;;;;;;;;;;4990092;28;20496;-61
2023/05/19 04:05:25;;;;;;;13.52;4.25;;;;;;;;;;4991222;28;20046;-61
2023/05/19 04:07:51;;;;;;;11.85;3.88;;;;;;;;;;4990840;28;20047;-61
2023/05/19 04:10:17;;;;;;;10.65;3.58;;;;;;;;;;4990249;28;20049;-61
2023/05/19 04:12:44;;;;;;;10.63;5.20;;;;;;;;;;4973719;28;20049;-61
2023/05/19 04:15:10;;;;;;;9.05;3.90;;;;;;;;;;4991205;28;20053;-61
2023/05/19 04:17:37;;;;;;;13.10;4.10;;;;;;;;;;4991079;28;20082;-61
2023/05/19 04:20:04;;;;;;;12.30;3.70;;;;;;;;;;4990453;28;20496;-61
2023/05/19 04:22:30;;;;;;;10.23;3.80;;;;;;;;;;4991131;28;20094;-60
2023/05/19 04:24:57;;;;;;;12.25;4.95;;;;;;;;;;4991713;28;20038;-61
2023/05/19 04:27:23;;;;;;;10.50;4.80;;;;;;;;;;4993555;28;20046;-61
2023/05/19 04:29:49;;;;;;;9.50;3.78;;;;;;;;;;4990536;28;20058;-61
2023/05/19 04:32:18;;;;;;;12.02;4.47;;;;;;;;;;4989580;28;20038;-61
2023/05/19 04:34:44;;;;;;;12.18;4.47;;;;;;;;;;4987676;28;20051;-61
2023/05/19 04:37:17;;;;;;;9.68;4.95;;;;;;;;;;4973565;28;20061;-61
2023/05/19 04:39:44;;;;;;;11.35;4.18;;;;;;;;;;4970726;28;20181;-61
2023/05/19 04:42:10;;;;;;;12.38;5.18;;;;;;;;;;4989520;28;20050;-60
2023/05/19 04:44:38;;;;;;;11.10;4.22;;;;;;;;;;4990877;28;20092;-61
2023/05/19 04:47:05;;;;;;;13.82;4.43;;;;;;;;;;4988650;28;20122;-61
2023/05/19 04:49:32;;;;;;;12.88;4.57;;;;;;;;;;4990348;28;20042;-61
2023/05/19 04:51:58;;;;;;;16.55;5.65;;;;;;;;;;4989768;28;20031;-61
2023/05/19 04:54:25;;;;;;;13.80;4.95;;;;;;;;;;4990480;28;20057;-61
2023/05/19 04:56:51;;;;;;;11.18;4.82;;;;;;;;;;4989877;28;20057;-61
2023/05/19 04:59:17;;;;;;;18.35;5.55;;;;;;;;;;4989712;28;20049;-61
2023/05/19 05:01:43;;;;;;;15.35;5.20;;;;;;;;;;4989685;28;20042;-61
2023/05/19 05:04:09;;;;;;;12.82;5.30;;;;;;;;;;4990289;28;20038;-61
2023/05/19 05:06:37;;;;;;;14.68;5.20;;;;;;;;;;4987983;28;20125;-61
2023/05/19 05:09:03;;;;;;;10.50;4.93;;;;;;;;;;4988197;28;20050;-61
2023/05/19 05:11:29;;;;;;;14.82;5.50;;;;;;;;;;4990342;28;20046;-61
2023/05/19 05:13:58;;;;;;;13.93;6.43;;;;;;;;;;4988337;28;20078;-61
2023/05/19 05:16:24;;;;;;;15.35;5.53;;;;;;;;;;4990124;28;20044;-61
2023/05/19 05:18:50;;;;;;;11.70;5.15;;;;;;;;;;4989344;28;20057;-61
2023/05/19 05:21:17;;;;;;;11.75;4.65;;;;;;;;;;4990464;28;20089;-61
2023/05/19 05:23:43;;;;;;;13.52;5.25;;;;;;;;;;4990220;28;20074;-61
2023/05/19 05:26:10;;;;;;;18.75;5.35;;;;;;;;;;4989818;28;20132;-61
2023/05/19 05:28:36;;;;;;;14.63;6.63;;;;;;;;;;4989841;28;20066;-61
2023/05/19 05:31:02;;;;;;;10.05;4.80;;;;;;;;;;4989556;28;20038;-61
2023/05/19 05:33:28;;;;;;;11.32;4.70;;;;;;;;;;4989679;28;20114;-62
2023/05/19 05:35:54;;;;;;;12.60;4.78;;;;;;;;;;4989457;28;20042;-61
2023/05/19 05:38:20;;;;;;;11.02;4.65;;;;;;;;;;4989519;28;20118;-61
2023/05/19 05:40:46;;;;;;;13.05;4.65;;;;;;;;;;4989529;28;20041;-61
2023/05/19 05:43:12;;;;;;;12.68;5.43;;;;;;;;;;4989103;28;20035;-62
2023/05/19 05:45:38;;;;;;;15.30;5.45;;;;;;;;;;4989816;28;20034;-61
2023/05/19 05:48:05;;;;;;;13.15;4.95;;;;;;;;;;4989322;28;20093;-61
2023/05/19 05:50:31;;;;;;;14.93;6.03;;;;;;;;;;4984184;28;20057;-61
2023/05/19 05:52:59;;;;;;;13.00;5.10;;;;;;;;;;4989506;28;20046;-61
2023/05/19 05:55:26;;;;;;;14.05;4.95;;;;;;;;;;4988594;28;20045;-62
2023/05/19 05:57:52;;;;;;;14.90;5.10;;;;;;;;;;4989431;28;20182;-61
2023/05/19 06:00:19;;;;;;;16.75;5.28;;;;;;;;;;4987894;28;20066;-61
2023/05/19 06:02:46;;;;;;;11.43;5.20;;;;;;;;;;4989873;28;20050;-61
2023/05/19 06:05:12;;;;;;;14.00;4.95;;;;;;;;;;4984669;28;20057;-61
2023/05/19 06:07:39;;;;;;;13.25;4.70;;;;;;;;;;4989725;28;20053;-62
2023/05/19 06:10:06;;;;;;;13.32;5.82;;;;;;;;;;4989033;28;20042;-61
2023/05/19 06:12:32;;;;;;;12.50;5.10;;;;;;;;;;4987985;28;20102;-61
2023/05/19 06:14:58;;;;;;;13.63;4.85;;;;;;;;;;4989256;28;20038;-62
2023/05/19 06:17:24;;;;;;;14.57;4.53;;;;;;;;;;4989425;28;20373;-61
2023/05/19 06:19:50;;;;;;;9.55;4.68;;;;;;;;;;4992471;28;20061;-61
2023/05/19 06:22:16;;;;;;;9.48;5.00;;;;;;;;;;4991726;28;20042;-61
2023/05/19 06:24:42;;;;;;;12.52;4.70;;;;;;;;;;4992175;28;20441;-61
2023/05/19 06:27:08;;;;;;;13.95;5.40;;;;;;;;;;4991824;28;20125;-61
2023/05/19 06:29:34;;;;;;;11.55;5.40;;;;;;;;;;4992588;28;20480;-61
2023/05/19 06:32:01;;;;;;;14.30;5.00;;;;;;;;;;4992662;28;20472;-62
2023/05/19 06:34:27;;;;;;;11.73;4.72;;;;;;;;;;4993209;28;20070;-61
2023/05/19 06:36:53;;;;;;;13.73;5.45;;;;;;;;;;4992538;28;20042;-61
2023/05/19 06:39:19;;;;;;;13.07;5.40;;;;;;;;;;4991343;28;20045;-60
2023/05/19 06:41:45;;;;;;;10.95;4.63;;;;;;;;;;4992765;28;20034;-60
2023/05/19 06:44:11;;;;;;;9.68;4.75;;;;;;;;;;4992824;28;20077;-60
2023/05/19 06:46:37;;;;;;;8.27;3.95;;;;;;;;;;4992275;28;20050;-59
2023/05/19 06:49:03;;;;;;;9.65;4.45;;;;;;;;;;4992450;28;20039;-60
2023/05/19 06:51:30;;;;;;;10.30;4.85;;;;;;;;;;4992771;28;20627;-60
2023/05/19 06:53:56;;;;;;;11.23;4.25;;;;;;;;;;4991229;28;20046;-60
2023/05/19 06:56:22;;;;;;;13.40;4.78;;;;;;;;;;4992644;28;20129;-60
2023/05/19 06:58:48;;;;;;;10.68;4.63;;;;;;;;;;4992157;28;20045;-61
2023/05/19 07:01:14;;;;;;;10.20;4.63;;;;;;;;;;4984588;28;20042;-61
2023/05/19 07:03:40;;;;;;;8.88;4.50;;;;;;;;;;4991195;28;20107;-61
2023/05/19 07:06:06;;;;;;;7.93;3.95;;;;;;;;;;4991142;28;20156;-61
2023/05/19 07:08:33;;;;;;;9.43;4.07;;;;;;;;;;4991939;28;20058;-61
2023/05/19 07:10:59;;;;;;;10.65;4.45;;;;;;;;;;4992363;28;20053;-62
2023/05/19 07:13:25;;;;;;;10.00;3.72;;;;;;;;;;4992460;28;20477;-62
2023/05/19 07:15:54;;;;;;;9.10;3.95;;;;;;;;;;4990532;28;20038;-61
2023/05/19 07:18:20;;;;;;;8.93;4.05;;;;;;;;;;4996795;28;20045;-61
2023/05/19 07:20:46;;;;;;;10.88;3.53;;;;;;;;;;4994692;28;20037;-61
2023/05/19 07:23:12;;;;;;;9.60;3.78;;;;;;;;;;4992131;28;20038;-61
2023/05/19 07:25:38;;;;;;;10.63;3.88;;;;;;;;;;4992390;28;20073;-61
2023/05/19 07:28:05;;;;;;;13.70;5.80;;;;;;;;;;4992368;28;20423;-61
2023/05/19 07:30:31;;;;;;;9.70;3.92;;;;;;;;;;4994977;28;20074;-62
2023/05/19 07:32:57;;;;;;;10.23;3.80;;;;;;;;;;5000334;28;20108;-61
2023/05/19 07:35:23;;;;;;;8.68;3.63;;;;;;;;;;4991993;28;20050;-61
2023/05/19 07:37:49;;;;;;;13.70;3.47;;;;;;;;;;4992191;28;20077;-61
2023/05/19 07:40:16;;;;;;;7.00;3.15;;;;;;;;;;4990166;28;20042;-61
2023/05/19 07:42:42;;;;;;;8.05;3.45;;;;;;;;;;4991795;28;20393;-61
2023/05/19 07:45:08;;;;;;;12.30;3.83;;;;;;;;;;4990198;28;20053;-61
2023/05/19 07:47:34;;;;;;;9.40;3.70;;;;;;;;;;4990733;28;20042;-61
2023/05/19 07:50:00;;;;;;;11.93;3.78;;;;;;;;;;4989524;28;20117;-61
2023/05/19 07:52:26;;;;;;;6.80;3.13;;;;;;;;;;4991818;28;20177;-62
2023/05/19 07:54:52;;;;;;;8.45;3.55;;;;;;;;;;4991647;28;20054;-61
2023/05/19 07:57:18;;;;;;;9.77;3.80;;;;;;;;;;4991216;28;20042;-61
2023/05/19 07:59:44;;;;;;;9.68;3.47;;;;;;;;;;4998359;28;20046;-61
2023/05/19 08:02:10;;;;;;;8.43;3.00;;;;;;;;;;4991738;28;20650;-61
2023/05/19 08:04:37;;;;;;;8.10;2.95;;;;;;;;;;4990368;28;20036;-61
2023/05/19 08:07:05;;;;;;;9.95;3.08;;;;;;;;;;4989628;28;20046;-61
2023/05/19 08:09:31;;;;;;;9.25;3.75;;;;;;;;;;4991479;28;20438;-61
2023/05/19 08:11:58;;;;;;;10.25;2.90;;;;;;;;;;4990510;28;20558;-61
2023/05/19 08:14:25;;;;;;;9.93;3.20;;;;;;;;;;4990170;28;20038;-61
2023/05/19 08:16:51;;;;;;;7.30;3.42;;;;;;;;;;4991382;28;20104;-61
2023/05/19 08:19:17;;;;;;;7.85;2.80;;;;;;;;;;4990395;28;20038;-61
2023/05/19 08:21:43;;;;;;;9.93;3.15;;;;;;;;;;4991254;28;20126;-61
2023/05/19 08:24:10;;;;;;;9.05;3.35;;;;;;;;;;4990520;28;20113;-61
2023/05/19 08:26:36;;;;;;;8.15;3.15;;;;;;;;;;4989755;28;20526;-61
2023/05/19 08:29:02;;;;;;;9.48;3.20;;;;;;;;;;4990255;28;20543;-61
2023/05/19 08:31:28;;;;;;;7.30;3.00;;;;;;;;;;4995656;28;20492;-61
2023/05/19 08:33:54;;;;;;;9.52;3.55;;;;;;;;;;4992840;28;20125;-61
2023/05/19 08:36:21;;;;;;;7.57;3.05;;;;;;;;;;4988777;28;20455;-61
2023/05/19 08:38:47;;;;;;;7.68;3.58;;;;;;;;;;4997817;28;20048;-62
2023/05/19 08:41:13;;;;;;;9.55;3.40;;;;;;;;;;4989761;28;20496;-61
2023/05/19 08:43:39;;;;;;;8.65;3.60;;;;;;;;;;4990664;28;20050;-61
2023/05/19 08:46:06;;;;;;;9.98;4.75;;;;;;;;;;4990655;28;20141;-61
2023/05/19 08:48:34;;;;;;;8.43;3.63;;;;;;;;;;4990076;28;20050;-61
2023/05/19 08:51:00;;;;;;;7.82;3.45;;;;;;;;;;4990574;28;20038;-61
2023/05/19 08:53:33;;;;;;;7.60;3.40;;;;;;;;;;4990208;28;20117;-61
2023/05/19 08:56:10;;;;;;;8.73;3.65;;;;;;;;;;4990584;28;20073;-61
2023/05/19 08:58:40;;;;;;;7.18;3.40;;;;;;;;;;4990061;28;20042;-61
2023/05/19 09:01:08;;;;;;;10.45;4.10;;;;;;;;;;4990449;28;20074;-61
2023/05/19 09:03:38;;;;;;;9.57;3.83;;;;;;;;;;4990176;28;20113;-61
2023/05/19 09:06:08;;;;;;;9.30;3.90;;;;;;;;;;4990003;28;20039;-61
2023/05/19 09:08:37;;;;;;;9.85;3.72;;;;;;;;;;4989797;28;20042;-61
2023/05/19 09:11:04;;;;;;;10.75;4.10;;;;;;;;;;4990009;28;20040;-61
2023/05/19 09:13:31;;;;;;;7.13;3.25;;;;;;;;;;4989316;28;20050;-61
2023/05/19 09:16:02;;;;;;;7.78;3.83;;;;;;;;;;4989908;28;20059;-61
2023/05/19 09:18:31;;;;;;;8.88;3.85;;;;;;;;;;4989838;28;20038;-61
2023/05/19 09:20:59;;;;;;;10.52;4.05;;;;;;;;;;4988746;28;20050;-61
2023/05/19 09:23:28;;;;;;;8.70;3.85;;;;;;;;;;4990211;28;20452;-61
2023/05/19 09:25:56;;;;;;;7.95;3.40;;;;;;;;;;4990072;28;20035;-61
2023/05/19 09:28:34;;;;;;;9.13;3.97;;;;;;;;;;4989761;28;20043;-61
2023/05/19 09:31:01;;;;;;;9.63;3.58;;;;;;;;;;4989674;28;20403;-61
2023/05/19 09:33:31;;;;;;;9.43;4.22;;;;;;;;;;4988602;28;20057;-61
2023/05/19 09:35:59;;;;;;;9.05;3.72;;;15.20;1.00;;;;;;4988575;28;20038;-61
2023/05/19 09:38:26;;;;;;;7.88;3.65;;;;;;;;;;4990261;28;20097;-61
2023/05/19 09:40:53;;;;;;;8.00;3.97;;;;;;;;;;4989043;28;20046;-61
2023/05/19 09:43:21;;;;;;;8.75;3.53;;;;;;;;;;4989726;28;20138;-62
2023/05/19 09:45:49;;;;;;;7.82;4.05;;;;;;;;;;4989919;28;20096;-61
2023/05/19 09:48:15;;;;;;;10.88;4.13;;;15.80;1.00;;;;;;4989261;28;20058;-61
2023/05/19 09:50:44;;;;;;;8.60;3.70;;;;;;;;;;4989926;28;20027;-61
2023/05/19 09:53:13;;;;;;;9.43;3.65;;;15.70;1.00;;;;;;4991408;28;20073;-61
2023/05/19 09:55:39;;;;;;;6.80;3.40;;;15.80;1.00;;;;;;4987860;28;20031;-62
2023/05/19 09:58:06;;;;;;;10.60;3.75;;;;;;;;;;4993341;28;20092;-61
2023/05/19 10:00:33;;;;;;;8.82;3.45;;;16.50;99.90;;;;;;4993130;28;20145;-61
2023/05/19 10:02:59;;;;;;;9.85;3.30;;;16.30;99.90;;;;;;4993963;28;20073;-61
2023/05/19 10:05:27;;;;;;;12.32;3.65;;;;;;;;;;4992259;28;20129;-61
2023/05/19 10:07:54;;;;;;;8.70;3.42;;;16.70;99.90;;;;;;4992490;28;20043;-61
2023/05/19 10:10:21;;;;;;;8.52;3.50;;;16.10;99.90;;;;;;4992913;28;20061;-61
2023/05/19 10:12:48;;;;;;;8.38;3.33;;;16.60;99.90;;;;;;4993356;28;20034;-62
2023/05/19 10:15:15;;;;;;;9.73;3.85;;;16.70;99.90;;;;;;4993695;28;20798;-62
2023/05/19 10:17:43;;;;;;;8.75;3.10;;;;;;;;;;4993295;28;20100;-62
2023/05/19 10:20:11;;;;;;;7.80;3.45;;;;;;;;;;4991736;28;20049;-61
2023/05/19 10:22:38;;;;;;;7.38;3.30;;;16.70;99.90;;;;;;4992885;28;20582;-62
2023/05/19 10:25:05;;;;;;;7.40;3.65;;;17.10;99.90;;;;;;4975742;28;20121;-62
2023/05/19 10:27:35;;;;;;;6.32;3.42;;;16.70;99.90;;;;;;4991527;28;20050;-62
2023/05/19 10:30:14;;;;;;;7.78;3.53;;;;;;;;;;4991461;28;20038;-61
2023/05/19 10:32:42;;;;;;;8.25;3.13;;;16.90;99.90;;;;;;4992813;28;20118;-62
2023/05/19 10:35:20;;;;;;;9.10;3.60;;;;;;;;;;4996571;28;20045;-61
2023/05/19 10:37:53;;;;;;;10.90;3.90;;;;;;;;;;4992869;28;20042;-61
2023/05/19 10:40:32;;;;;;;8.60;3.23;;;17.10;99.90;;;;;;4974952;28;20101;-62
2023/05/19 10:43:18;;;;;;;7.35;3.80;;;;;;;;;;4975781;28;20078;-62
2023/05/19 10:45:48;;;;;;;9.30;3.33;;;17.20;99.90;;;;;;4992871;28;20051;-61
2023/05/19 10:48:16;;;;;;;8.65;3.22;;;;;;;;;;4992083;28;20052;-60
2023/05/19 10:50:45;;;;;;;12.52;3.58;;;17.40;99.90;;;;;;4992644;28;20043;-62
2023/05/19 10:53:21;;;;;;;8.73;3.58;;;;;;;;;;4974797;28;20038;-62
2023/05/19 10:55:55;;;;;;;8.23;3.40;;;;;;;;;;4991469;28;20097;-61
2023/05/19 10:58:38;;;;;;;8.05;3.20;;;17.30;99.90;;;;;;4990781;28;20046;-62
2023/05/19 11:01:09;;;;;;;9.15;3.22;;;;;;;;;;4991441;28;20050;-61
2023/05/19 11:03:55;;;;;;;10.18;3.40;;;17.40;99.90;;;;;;4991774;28;20530;-61
2023/05/19 11:06:27;;;;;;;8.90;3.05;;;;;;;;;;4992053;28;20038;-61
2023/05/19 11:08:57;;;;;;;6.47;3.08;;;;;;;;;;4974172;28;20070;-61
2023/05/19 11:11:23;;;;;;;8.27;3.15;;;17.20;99.90;;;;;;4990893;28;20136;-61
2023/05/19 11:13:55;;;;;;;8.32;3.20;;;17.00;99.90;;;;;;4992180;28;20034;-61
2023/05/19 11:16:28;;;;;;;9.65;3.28;;;17.40;99.90;;;;;;4990951;28;20348;-62
2023/05/19 11:18:57;;;;;;;10.75;4.25;;;17.30;99.90;;;;;;4991686;28;20130;-61
2023/05/19 11:21:23;;;;;;;7.45;3.25;;;17.30;99.90;;;;;;4999905;28;20034;-61
2023/05/19 11:23:50;;;;;;;7.22;2.92;;;17.20;99.90;;;;;;4990400;28;20734;-61
2023/05/19 11:29:20;;;;;;;7.88;3.10;;;17.30;99.90;;;;;;5006076;28;20156;-59
2023/05/19 11:31:47;;;;;;;10.40;3.50;;;17.70;99.90;;;;;;4998338;28;20057;-59
2023/05/19 11:34:13;;;;;;;8.95;3.50;;;17.80;99.90;;;;;;5004774;28;20046;-59
2023/05/19 11:36:40;;;;;;;8.98;2.92;;;17.90;99.90;;;;;;5012385;28;20033;-59
2023/05/19 11:39:07;;;;;;;8.13;2.90;;;17.80;99.90;;;;;;5028707;28;20077;-59
2023/05/19 11:41:38;;;;;;;7.88;2.63;;;17.70;99.90;;;;;;5031015;28;20044;-59
2023/05/19 11:44:09;;;;;;;14.70;3.85;;;17.70;99.90;;;;;;5029150;28;20037;-59
2023/05/19 11:46:35;;;;;;;9.82;2.92;;;17.90;99.90;;;;;;5023602;28;20113;-61
2023/05/19 11:49:01;;;;;;;7.45;3.13;;;17.90;99.90;;;;;;5024388;28;20204;-59
2023/05/19 11:51:26;;;;;;;8.75;3.08;;;18.30;99.90;;;;;;5029010;28;20698;-59
2023/05/19 11:53:53;;;;;;;9.13;3.08;;;18.20;99.90;;;;;;5025676;28;20044;-59
2023/05/19 11:56:20;;;;;;;9.38;3.17;;;18.50;99.90;;;;;;5028552;28;20182;-59
2023/05/19 11:58:46;;;;;;;7.60;2.97;;;18.50;99.90;;;;;;5032486;28;20053;-58
2023/05/19 12:01:11;;;;;;;7.88;2.67;;;18.80;99.90;;;;;;5030674;28;20522;-59
2023/05/19 12:03:37;;;;;;;7.65;2.78;;;18.80;99.90;;;;;;5030953;28;20120;-59
2023/05/19 12:06:04;;;;;;;6.88;3.05;;;19.30;99.90;;;;;;5006983;28;20459;-59
2023/05/19 12:08:33;;;;;;;6.45;2.92;;;19.00;99.90;;;;;;5021970;28;20463;-59
2023/05/19 12:10:59;;;;;;;6.75;2.83;;;19.40;99.90;;;;;;5030004;28;20053;-59
2023/05/19 12:13:24;;;;;;;9.00;3.08;;;19.30;99.90;;;;;;5029620;28;20043;-59
2023/05/19 12:15:52;;;;;;;7.53;2.97;;;;;;;;;;5029745;28;20079;-59
2023/05/19 12:18:18;;;;;;;8.93;3.35;;;19.60;99.90;;;;;;5029687;28;20103;-59
2023/05/19 12:20:44;;;;;;;8.57;3.15;;;20.00;99.90;;;;;;5029776;28;20045;-59
2023/05/19 12:23:12;;;;;;;8.90;3.22;;;20.00;99.90;;;;;;5028033;28;20029;-59
2023/05/19 12:25:38;;;;;;;9.02;3.50;;;20.70;99.90;;;;;;5028864;28;20118;-59
2023/05/19 12:28:04;;;;;;;9.48;4.15;;;20.90;99.90;;;;;;5027999;28;20080;-59
2023/05/19 12:30:30;;;;;;;7.38;3.72;;;20.70;99.90;;;;;;5028134;28;20476;-59
2023/05/19 12:32:59;;;;;;;7.82;2.72;;;21.70;99.90;;;;;;5029617;28;20037;-59
2023/05/19 12:35:29;;;;;;;7.95;3.50;;;24.20;99.90;;;;;;5029562;28;20415;-60
2023/05/19 12:37:55;;;;;;;7.45;3.38;;;26.70;99.90;;;;;;5028463;28;20049;-60
2023/05/19 12:40:20;;;;;;;10.00;3.08;;;29.10;99.90;;;;;;5024167;28;20563;-60
2023/05/19 12:42:50;;;;;;;8.80;3.45;;;31.10;99.90;;;;;;5030181;28;20033;-60
2023/05/19 12:45:20;;;;;;;6.28;3.15;;;32.70;99.90;;;;;;5028812;28;20041;-60
2023/05/19 12:47:48;;;;;;;7.75;2.65;;;34.50;99.90;;;;;;5023160;28;20498;-60
2023/05/19 12:50:13;;;;;;;6.88;3.30;;;35.40;99.90;;;;;;5027607;28;20492;-60
2023/05/19 12:52:50;;;;;;;9.48;3.17;;;36.60;99.90;;;;;;5029135;28;20171;-61
2023/05/19 12:55:19;;;;;;;10.27;3.05;;;37.70;91.50;;;;;;5028175;28;20542;-60
2023/05/19 12:57:50;;;;;;;9.13;3.05;;;38.50;94.10;;;;;;5027997;28;20521;-61
2023/05/19 13:00:21;;;;;;;7.85;3.28;;;39.30;91.50;;;;;;5028752;28;20037;-61
2023/05/19 13:03:19;;;;;;;8.43;2.95;;;40.20;75.30;;;;;;5027946;28;20048;-61
2023/05/19 13:05:47;;;;;;;7.47;3.03;;;41.10;77.70;;;;;;4996239;28;20049;-61
2023/05/19 13:08:15;;;;;;;8.18;3.45;;;41.10;64.70;;;;;;5025990;28;20112;-61
2023/05/19 13:10:43;;;;;;;7.32;3.08;;;41.60;49.40;;;;;;5028822;28;20462;-61
2023/05/19 13:13:09;;;;;;;7.45;2.85;;;42.50;56.00;;;;;;5023966;28;20034;-61
2023/05/19 13:15:39;;;;;;;7.93;3.42;;;41.30;42.20;;;;;;5019658;28;20037;-61
2023/05/19 13:18:07;;;;;;;10.13;3.95;;;42.30;28.90;;;;;;5028836;28;20060;-61
2023/05/19 13:20:33;;;;;;;8.73;3.00;;;42.30;27.80;;;;;;5027431;28;20210;-61
2023/05/19 13:22:59;;;;;;;8.40;3.63;;;42.40;21.20;;;;;;5028818;28;20079;-61
2023/05/19 13:25:26;;;;;;;8.30;3.13;;;42.80;19.20;;;;;;5028926;28;20061;-61
2023/05/19 13:27:51;;;;;;;7.13;3.22;;;42.10;16.60;;;;;;5028000;28;20041;-61
2023/05/19 13:30:18;;;;;;;8.20;3.22;;;42.00;8.20;;;;;;5025708;28;20037;-61
2023/05/19 13:32:44;;;;;;;6.95;3.35;;;42.50;8.10;;;;;;5027749;28;20099;-61
2023/05/19 13:35:12;;;;;;;7.47;3.22;;;42.20;15.80;;;;;;5024548;28;20452;-61
2023/05/19 13:37:40;;;;;;;5.80;2.75;;;41.50;5.10;;;;;;5021244;28;20033;-60
2023/05/19 13:40:07;;;;;;;8.57;3.17;;;41.50;1.00;;;;;;5022236;28;20034;-61
2023/05/19 13:42:34;;;;;;;8.00;3.40;;;41.50;1.00;;;;;;5020298;28;20060;-61
2023/05/19 13:45:00;;;;;;;8.20;2.83;;;41.60;1.00;;;;;;5023290;28;20041;-61
2023/05/19 13:47:26;;;;;;;5.80;2.63;;;41.80;1.00;;;;;;5028266;28;20038;-61
2023/05/19 13:49:52;;;;;;;7.30;3.15;;;41.70;1.00;;;;;;5028708;28;20036;-61
2023/05/19 13:52:21;;;;;;;13.30;3.75;;;42.00;1.00;;;;;;5028313;28;20037;-61
2023/05/19 13:54:47;;;;;;;8.60;2.97;;;42.10;1.00;;;;;;5028964;28;20064;-61
2023/05/19 13:57:16;;;;;;;6.93;3.15;;;43.00;1.00;;;;;;5028124;28;20399;-61
2023/05/19 13:59:43;;;;;;;9.18;3.20;;;42.80;1.00;;;;;;5021109;28;20388;-61
2023/05/19 14:02:10;;;;;;;8.35;2.78;;;43.30;1.00;;;;;;5022724;28;20411;-60
2023/05/19 14:04:39;;;;;;;8.65;2.78;;;42.90;1.00;;;;;;5031368;28;20045;-61
2023/05/19 14:07:06;;;;;;;7.65;2.75;;;42.70;1.00;;;;;;5033168;28;20042;-61
2023/05/19 14:09:32;;;;;;;8.98;2.97;;;42.50;1.00;;;;;;5026385;28;20034;-60